GCXOGCLA

Guest
Details From GCXO - Tenerife Norte - Los Rodeos
To GCLA - La Palma
Flight Number -
Tags decoded
Created
Modified
Stats Distance 7,703 nm / 14,266 km
Max Altitude 0 ft / 0 m
Waypoints 5
Social Downloads 0
Likes 0
Share VATSIM

Download

Looking for another format? Having issues loading an existing format? Contact us
Advertisement - Login to hide

Notes

Requested: GCXO TESEL ARACO LA PALMA MDB GCLA

Route

GCXO TESEL LA PALMA GCLA

ID Type Via Altitude Latitude Longitude Leg Dist Tot Dist Heading (true) Name
O GCXO APT - 0 ft / 0 m 28.48266˚ -16.34154˚ - 0 nm - Tenerife Norte - Los Rodeos
TESEL FIX - 0 ft / 0 m 28.48829˚ -16.83325˚ 25 nm 25 nm 271° / 271° -
LA NDB - 0 ft / 0 m 27.93539˚ -82.07581˚ 3406 nm 3432 nm 286° / 253° WIREY NDB
PALMA FIX - 0 ft / 0 m 21.01500˚ -87.28083˚ 503 nm 3936 nm 216° / 213° -
O GCLA APT - 0 ft / 0 m 28.62648˚ -17.75561˚ 3766 nm 7702 nm 68° / 100° La Palma

Altitude Profile

Advertisement - Login to hide

Weather


0- 5 10 15 20 25 30 35+ Temperature / ° C

Clouds and Precipitation
Forecast for 2017-12-12 12:00 UTC. Updated an hour ago

Ground ~20,000 ft ~40,000 ft Winds

GCXO

Details ICAO GCXO (TFN)
Name Tenerife Norte - Los Rodeos
Region Canary Islands
Timezone Atlantic/Canary (UTC+0.0)
Stats Elevation 2,076 ft / 633 m (AMSL)
Location 28.482656° -16.341541°
Runways 1
Magnetic Variation 5.003° W

METAR

GCXO 120800Z 32013G23KT 280V010 9999 BKN020 13/09 Q1020 NOSIG

Decode

TAF

TAF GCXO 120200Z 1203/1303 34014KT 9999 BKN015 TX17/1215Z TN14/1206Z PROB40 TEMPO 1203/1221 34015G25KT PROB30 TEMPO 1203/1211 3000 -RA BCFG BKN005

Decode

Departure Runways

ID Width Length Bearing (true) Bearing (mag) Surface Threshold Offset Overrun Length
12 148 ft / 45 m 11,165 ft / 3,403 m 110.67° 115.67° Asphalt 0 ft / 0 m 197 ft / 60 m
30 148 ft / 45 m 11,165 ft / 3,403 m 290.69° 295.69° Asphalt 0 ft / 0 m 197 ft / 60 m

GCLA

Details ICAO GCLA (SPC)
Name La Palma
Region Canary Islands
Timezone Atlantic/Canary (UTC+0.0)
Stats Elevation 107 ft / 33 m (AMSL)
Location 28.626480° -17.755613°
Runways 1
Magnetic Variation 5.523° W

METAR

GCLA 120800Z 01015KT 330V040 9999 -RA SCT050 18/11 Q1020

Decode

TAF

TAF GCLA 120200Z 1203/1303 02018KT 9999 SCT030 BKN050 TX21/1213Z TN17/1206Z TEMPO 1203/1215 02018G30KT

Decode

Destination Runways

ID Width Length Bearing (true) Bearing (mag) Surface Threshold Offset Overrun Length
01 148 ft / 45 m 7,240 ft / 2,207 m 359.02° 4.54° Asphalt 0 ft / 0 m 279 ft / 85 m
19 148 ft / 45 m 7,240 ft / 2,207 m 179.02° 184.54° Asphalt 0 ft / 0 m 236 ft / 72 m

Popular Alternatives